Time;durP1;ratioP1;P1;durP2;ratioP2;P2;SDS_P1;SDS_P2;PMS_P1;PMS_P2;Temp;Humidity;BMP_temperature;BMP_pressure;BME280_temperature;BME280_humidity;BME280_pressure;Samples;Min_cycle;Max_cycle;Signal;HPM_P1;HPM_P2
2023/09/12 00:02:50;;;;;;;9.30;8.50;;;25.60;60.40;;;;;;229453;1254;22359;-59
2023/09/12 00:07:53;;;;;;;9.70;8.80;;;25.70;60.50;;;;;;229425;1254;22295;-59
2023/09/12 00:12:56;;;;;;;9.50;8.70;;;25.60;60.50;;;;;;229227;1254;345834;-60
2023/09/12 00:17:59;;;;;;;10.50;9.40;;;25.70;60.50;;;;;;229529;1247;22371;-59
2023/09/12 00:23:02;;;;;;;10.30;9.30;;;25.70;60.80;;;;;;229578;1248;22667;-59
2023/09/12 00:28:04;;;;;;;9.90;9.00;;;25.70;60.60;;;;;;229515;1254;23850;-59
2023/09/12 00:33:07;;;;;;;9.60;8.80;;;25.70;60.70;;;;;;229534;1248;22401;-59
2023/09/12 00:38:10;;;;;;;10.00;8.90;;;25.70;60.80;;;;;;229538;1254;22420;-59
2023/09/12 00:43:13;;;;;;;9.80;8.80;;;25.70;60.80;;;;;;229485;1247;22448;-58
2023/09/12 00:48:18;;;;;;;10.00;9.00;;;25.70;60.70;;;;;;229435;1255;22308;-58
2023/09/12 00:53:21;;;;;;;10.00;9.10;;;25.70;60.80;;;;;;229469;1253;22292;-59
2023/09/12 00:58:25;;;;;;;9.60;8.50;;;25.70;60.80;;;;;;229541;1254;22339;-59
2023/09/12 01:03:28;;;;;;;10.40;9.30;;;25.70;60.70;;;;;;229474;1250;22281;-58
2023/09/12 01:08:32;;;;;;;10.80;9.20;;;25.80;61.10;;;;;;229511;1249;22422;-59
2023/09/12 01:13:35;;;;;;;9.20;8.30;;;25.70;60.50;;;;;;229452;1254;22274;-59
2023/09/12 01:18:38;;;;;;;9.10;8.30;;;25.70;60.70;;;;;;229519;1249;22273;-59
2023/09/12 01:24:07;;;;;;;9.10;8.20;;;25.70;60.80;;;;;;229480;1248;23940;-59
2023/09/12 01:29:13;;;;;;;9.50;8.60;;;25.70;60.60;;;;;;229532;1248;22403;-58
2023/09/12 01:34:15;;;;;;;10.00;9.00;;;25.70;60.90;;;;;;229595;1247;22273;-59
2023/09/12 01:39:18;;;;;;;9.30;8.40;;;25.70;60.90;;;;;;229573;1247;23708;-59
2023/09/12 01:44:24;;;;;;;9.00;7.70;;;25.70;60.60;;;;;;229540;1254;22213;-59
2023/09/12 01:49:29;;;;;;;8.70;8.00;;;25.70;60.70;;;;;;229554;1248;22308;-59
2023/09/12 01:54:33;;;;;;;9.50;8.50;;;25.60;61.20;;;;;;229493;1255;22334;-59
2023/09/12 01:59:37;;;;;;;9.60;8.70;;;25.70;63.10;;;;;;229472;1254;22267;-60
2023/09/12 02:04:39;;;;;;;11.00;8.80;;;25.70;61.10;;;;;;229438;1250;22349;-60
2023/09/12 02:09:42;;;;;;;10.10;8.50;;;25.70;61.10;;;;;;229504;1247;23052;-60
2023/09/12 02:14:44;;;;;;;9.00;8.00;;;25.70;61.00;;;;;;229540;1249;22327;-60
2023/09/12 02:19:48;;;;;;;9.00;8.20;;;25.70;60.80;;;;;;229417;1246;22976;-59
2023/09/12 02:24:50;;;;;;;9.50;8.60;;;25.70;60.90;;;;;;229507;1249;22328;-60
2023/09/12 02:29:53;;;;;;;8.70;7.90;;;25.70;61.00;;;;;;229566;1254;22780;-59
2023/09/12 02:34:57;;;;;;;8.80;8.00;;;25.70;61.00;;;;;;229593;1248;22735;-59
2023/09/12 02:39:59;;;;;;;10.50;8.70;;;25.70;61.00;;;;;;229466;1250;22364;-59
2023/09/12 02:45:02;;;;;;;8.70;7.90;;;25.70;60.70;;;;;;229615;1249;22288;-60
2023/09/12 02:50:06;;;;;;;8.40;7.60;;;25.70;60.70;;;;;;229605;1249;23173;-60
2023/09/12 02:55:09;;;;;;;9.00;8.20;;;25.70;60.70;;;;;;229530;1249;23183;-58
2023/09/12 03:00:12;;;;;;;8.90;8.10;;;25.70;60.80;;;;;;229537;1249;22273;-60
2023/09/12 03:05:14;;;;;;;9.10;8.10;;;25.70;60.80;;;;;;229530;1250;22238;-60
2023/09/12 03:10:17;;;;;;;9.60;8.70;;;25.70;60.80;;;;;;229550;1263;22249;-59
2023/09/12 03:15:20;;;;;;;9.10;8.30;;;25.60;60.70;;;;;;229540;1252;23148;-60
2023/09/12 03:20:23;;;;;;;9.30;8.40;;;25.60;61.00;;;;;;229533;1263;23129;-60
2023/09/12 03:25:25;;;;;;;8.70;7.80;;;25.60;60.90;;;;;;229550;1260;22292;-60
2023/09/12 03:30:28;;;;;;;9.40;8.50;;;25.60;60.80;;;;;;229574;1263;23223;-60
2023/09/12 03:35:34;;;;;;;8.60;7.80;;;25.60;60.90;;;;;;229671;1262;22288;-58
2023/09/12 03:40:37;;;;;;;10.80;8.10;;;25.60;60.90;;;;;;229303;1252;22303;-60
2023/09/12 03:45:40;;;;;;;10.00;7.70;;;25.60;60.70;;;;;;229566;1249;22396;-60
2023/09/12 03:50:45;;;;;;;8.80;8.00;;;25.60;60.60;;;;;;229508;1260;22311;-60
2023/09/12 03:55:48;;;;;;;9.40;8.60;;;25.60;60.60;;;;;;229588;1251;22281;-61
2023/09/12 04:00:51;;;;;;;9.20;8.00;;;25.60;60.70;;;;;;229345;1263;22299;-60
2023/09/12 04:05:54;;;;;;;8.50;7.80;;;25.60;60.80;;;;;;229510;1249;22296;-60
2023/09/12 04:10:57;;;;;;;8.40;7.60;;;25.60;60.60;;;;;;229583;1248;22287;-60
2023/09/12 04:15:59;;;;;;;8.10;7.40;;;25.60;60.70;;;;;;229625;1250;23083;-60
2023/09/12 04:21:02;;;;;;;8.70;7.90;;;25.60;60.80;;;;;;229579;1260;22276;-60
2023/09/12 04:26:06;;;;;;;8.20;7.50;;;25.50;60.80;;;;;;229519;1251;22274;-60
2023/09/12 04:31:09;;;;;;;8.30;7.60;;;25.50;60.70;;;;;;229472;1263;22248;-59
2023/09/12 04:36:11;;;;;;;8.80;8.10;;;25.50;60.80;;;;;;229480;1247;22256;-60
2023/09/12 04:41:16;;;;;;;8.20;7.60;;;25.50;60.70;;;;;;229435;1264;22993;-60
2023/09/12 04:46:19;;;;;;;8.00;7.30;;;25.50;60.80;;;;;;229463;1249;22278;-60
2023/09/12 04:51:22;;;;;;;8.40;7.70;;;25.50;60.80;;;;;;229472;1247;22286;-60
2023/09/12 04:56:25;;;;;;;8.50;7.60;;;25.50;60.60;;;;;;229526;1263;22305;-60
2023/09/12 05:01:27;;;;;;;8.00;7.30;;;25.50;60.60;;;;;;229519;1251;22254;-60
2023/09/12 05:06:31;;;;;;;7.70;7.00;;;25.40;60.60;;;;;;229519;1263;22318;-59
2023/09/12 05:11:34;;;;;;;8.10;7.40;;;25.40;60.50;;;;;;229517;1251;22251;-60
2023/09/12 05:16:37;;;;;;;10.20;9.30;;;25.40;60.70;;;;;;229543;1262;23243;-60
2023/09/12 05:21:40;;;;;;;7.90;7.20;;;25.50;60.70;;;;;;229469;1248;22340;-60
2023/09/12 05:26:43;;;;;;;7.90;7.30;;;25.40;60.80;;;;;;229513;1263;22248;-59
2023/09/12 05:31:46;;;;;;;8.60;7.90;;;25.50;60.70;;;;;;229659;1263;22270;-60
2023/09/12 05:36:50;;;;;;;8.90;8.00;;;25.50;61.00;;;;;;229690;1263;22296;-60
2023/09/12 05:41:52;;;;;;;8.50;7.70;;;25.50;60.70;;;;;;229578;1255;22287;-60
2023/09/12 05:46:56;;;;;;;8.50;7.70;;;25.50;60.60;;;;;;229554;1261;22353;-59
2023/09/12 05:51:59;;;;;;;8.50;7.80;;;25.50;60.80;;;;;;229552;1263;22289;-60
2023/09/12 05:57:03;;;;;;;9.40;8.40;;;25.50;60.80;;;;;;229605;1256;23109;-60
2023/09/12 06:02:09;;;;;;;11.10;8.00;;;25.50;60.70;;;;;;229603;1263;22345;-61
2023/09/12 06:07:12;;;;;;;9.50;8.50;;;25.60;60.50;;;;;;229430;1263;23399;-58
2023/09/12 06:12:15;;;;;;;12.40;8.40;;;25.50;61.00;;;;;;229493;1255;22298;-60
2023/09/12 06:17:17;;;;;;;12.30;9.70;;;25.50;61.50;;;;;;229469;1247;22311;-60
2023/09/12 06:22:20;;;;;;;12.10;9.30;;;25.50;61.30;;;;;;229556;1263;24050;-60
2023/09/12 06:27:23;;;;;;;13.60;9.80;;;25.40;61.90;;;;;;229461;1263;22255;-60
2023/09/12 06:32:25;;;;;;;15.80;9.70;;;25.40;62.10;;;;;;229483;1263;22248;-60
2023/09/12 06:37:28;;;;;;;13.30;9.50;;;25.50;61.80;;;;;;229604;1255;22301;-60
2023/09/12 06:42:31;;;;;;;13.90;9.60;;;25.80;61.10;;;;;;229618;1263;23957;-60
2023/09/12 06:47:33;;;;;;;10.50;9.30;;;26.00;61.20;;;;;;229547;1263;22237;-59
2023/09/12 06:52:36;;;;;;;12.50;10.20;;;26.10;61.50;;;;;;229507;1257;22253;-59
2023/09/12 06:57:39;;;;;;;17.60;9.40;;;25.90;62.30;;;;;;229547;1249;23064;-59
2023/09/12 07:02:41;;;;;;;10.70;8.70;;;25.80;62.40;;;;;;229570;1263;22271;-59
2023/09/12 07:07:44;;;;;;;13.60;9.90;;;26.00;61.50;;;;;;229618;1249;22738;-59
2023/09/12 07:12:47;;;;;;;13.70;9.90;;;25.90;61.60;;;;;;229519;1257;22250;-59
2023/09/12 07:17:50;;;;;;;18.00;11.10;;;26.00;61.60;;;;;;229566;1252;22268;-60
2023/09/12 07:22:53;;;;;;;15.10;11.20;;;25.90;61.60;;;;;;229536;1263;22359;-60
2023/09/12 07:27:55;;;;;;;13.90;11.40;;;25.80;62.20;;;;;;229449;1249;22275;-60
2023/09/12 07:32:58;;;;;;;16.00;11.80;;;25.70;62.10;;;;;;229492;1263;22270;-60
2023/09/12 07:38:01;;;;;;;14.20;11.10;;;25.70;62.10;;;;;;229550;1253;22341;-60
2023/09/12 07:43:03;;;;;;;12.40;11.10;;;25.70;62.00;;;;;;229565;1252;23018;-59
2023/09/12 07:48:11;;;;;;;13.10;11.50;;;25.80;62.10;;;;;;228330;1252;22678;-60
2023/09/12 07:53:13;;;;;;;11.40;10.30;;;25.70;62.20;;;;;;229599;1264;22282;-60
2023/09/12 07:58:20;;;;;;;13.60;11.30;;;25.80;61.80;;;;;;229598;1263;23186;-61
2023/09/12 08:03:22;;;;;;;11.70;10.60;;;25.90;61.40;;;;;;229568;1263;22251;-59
2023/09/12 08:08:25;;;;;;;12.70;10.60;;;26.00;61.30;;;;;;229484;1252;22367;-60
2023/09/12 08:13:29;;;;;;;12.60;10.60;;;26.00;61.10;;;;;;229585;1260;22358;-61
2023/09/12 08:18:32;;;;;;;11.90;10.80;;;26.00;60.90;;;;;;229525;1263;22252;-60
2023/09/12 08:23:36;;;;;;;11.80;10.60;;;26.00;60.90;;;;;;229549;1260;22342;-60
2023/09/12 08:28:39;;;;;;;12.70;11.30;;;26.00;60.90;;;;;;229550;1263;22275;-60
2023/09/12 08:33:41;;;;;;;12.30;11.00;;;26.10;60.80;;;;;;229515;1261;22258;-60
2023/09/12 08:38:44;;;;;;;11.70;10.60;;;26.10;60.60;;;;;;229595;1263;22267;-60
2023/09/12 08:43:48;;;;;;;10.30;9.40;;;26.20;60.40;;;;;;229522;1263;22279;-60
2023/09/12 08:48:51;;;;;;;11.80;10.30;;;26.20;60.40;;;;;;229615;1248;22233;-60
2023/09/12 08:53:54;;;;;;;10.80;9.80;;;26.30;60.50;;;;;;229595;1252;22288;-60
2023/09/12 08:58:58;;;;;;;11.60;10.40;;;26.40;60.40;;;;;;224920;1253;24071;-60
2023/09/12 09:04:03;;;;;;;13.00;10.00;;;26.40;60.30;;;;;;229584;1260;22350;-60
2023/09/12 09:09:07;;;;;;;12.40;9.90;;;26.30;60.60;;;;;;229691;1247;23016;-59
2023/09/12 09:14:10;;;;;;;11.50;10.40;;;26.50;60.60;;;;;;229605;1249;22336;-60
2023/09/12 09:19:13;;;;;;;11.20;10.10;;;26.50;60.60;;;;;;229623;1249;22750;-60
2023/09/12 09:24:17;;;;;;;10.30;9.50;;;26.60;60.40;;;;;;229576;1252;22303;-61
2023/09/12 09:29:21;;;;;;;11.00;9.90;;;26.80;60.20;;;;;;229571;1251;22269;-61
2023/09/12 09:34:24;;;;;;;10.50;9.50;;;26.80;60.10;;;;;;229657;1251;22266;-61
2023/09/12 09:39:31;;;;;;;11.60;10.50;;;26.80;60.20;;;;;;229596;1250;22298;-59
2023/09/12 09:44:33;;;;;;;11.20;10.30;;;26.80;60.30;;;;;;229650;1263;22288;-61
2023/09/12 09:49:36;;;;;;;10.70;9.70;;;26.90;60.50;;;;;;229668;1252;22277;-61
2023/09/12 09:54:45;;;;;;;11.10;9.90;;;26.90;60.90;;;;;;229635;1249;22355;-61
2023/09/12 09:59:51;;;;;;;13.60;9.70;;;27.00;60.30;;;;;;229647;1252;22360;-61
2023/09/12 10:04:55;;;;;;;10.70;9.80;;;27.10;60.70;;;;;;229601;1247;22308;-61
2023/09/12 10:10:04;;;;;;;11.40;10.30;;;27.10;60.40;;;;;;229564;1252;22254;-59
2023/09/12 10:15:08;;;;;;;11.50;10.50;;;27.20;60.70;;;;;;229688;1252;22265;-59
2023/09/12 10:20:18;;;;;;;13.60;10.30;;;27.20;60.50;;;;;;229677;1249;22284;-58
2023/09/12 10:25:21;;;;;;;11.20;10.20;;;27.30;60.60;;;;;;229666;1252;22258;-57
2023/09/12 10:30:25;;;;;;;10.20;9.30;;;27.40;60.30;;;;;;229623;1256;22273;-59
2023/09/12 10:35:30;;;;;;;10.80;9.80;;;27.50;60.20;;;;;;229631;1253;22353;-58
2023/09/12 10:40:36;;;;;;;10.30;9.40;;;27.50;60.10;;;;;;229566;1252;22256;-58
2023/09/12 10:45:45;;;;;;;10.20;9.20;;;27.60;60.00;;;;;;229682;1263;22265;-57
2023/09/12 10:50:48;;;;;;;11.50;9.30;;;27.70;59.70;;;;;;225680;1263;24366;-58
2023/09/12 10:55:59;;;;;;;9.10;8.30;;;27.50;59.50;;;;;;229567;1263;22250;-58
2023/09/12 11:01:26;;;;;;;9.70;8.90;;;27.50;59.50;;;;;;229597;1264;23212;-59
2023/09/12 11:06:30;;;;;;;9.70;8.90;;;27.70;58.90;;;;;;229648;1254;22265;-59
2023/09/12 11:11:33;;;;;;;9.50;8.60;;;27.80;58.50;;;;;;225765;1253;24252;-59
2023/09/12 11:16:37;;;;;;;9.20;8.40;;;27.90;58.20;;;;;;229581;1253;22310;-59
2023/09/12 11:21:39;;;;;;;10.30;9.20;;;27.80;58.40;;;;;;229657;1252;22282;-59
2023/09/12 11:27:04;;;;;;;9.60;8.70;;;27.90;57.30;;;;;;229619;1251;22414;-59
2023/09/12 11:32:07;;;;;;;8.90;8.20;;;27.90;57.50;;;;;;229646;1252;22264;-59
2023/09/12 11:37:27;;;;;;;9.20;8.50;;;28.00;57.20;;;;;;229563;1252;22276;-59
2023/09/12 11:42:31;;;;;;;8.80;8.00;;;28.00;56.80;;;;;;229679;1251;22258;-59
2023/09/12 11:47:33;;;;;;;8.90;8.10;;;28.00;56.70;;;;;;229617;1263;23131;-59
2023/09/12 11:52:39;;;;;;;9.70;8.50;;;28.10;56.50;;;;;;222748;1248;22523;-58
2023/09/12 11:57:42;;;;;;;9.50;8.50;;;28.10;56.30;;;;;;229584;1251;23505;-59
2023/09/12 12:02:45;;;;;;;9.10;8.20;;;28.00;56.30;;;;;;229625;1247;22262;-59
2023/09/12 12:07:49;;;;;;;9.20;8.40;;;27.90;56.30;;;;;;229660;1248;24133;-59
2023/09/12 12:12:53;;;;;;;8.20;7.50;;;28.10;56.00;;;;;;229492;1253;249189;-59
2023/09/12 12:17:56;;;;;;;11.00;7.90;;;28.10;55.70;;;;;;229619;1248;22283;-59
2023/09/12 12:22:59;;;;;;;10.00;8.50;;;27.70;53.20;;;;;;228518;1247;22595;-58
2023/09/12 12:28:03;;;;;;;8.50;7.80;;;27.90;54.40;;;;;;229605;1251;23318;-60
2023/09/12 12:33:08;;;;;;;8.20;7.40;;;27.70;52.70;;;;;;229592;1260;23132;-59
2023/09/12 12:38:36;;;;;;;8.10;7.30;;;27.40;51.50;;;;;;229650;1247;22270;-58
2023/09/12 12:43:42;;;;;;;8.50;7.80;;;27.80;53.50;;;;;;229570;1251;22263;-59
2023/09/12 12:48:45;;;;;;;8.50;7.80;;;27.90;53.20;;;;;;229569;1257;23279;-58
2023/09/12 12:53:54;;;;;;;8.40;7.70;;;28.10;53.70;;;;;;229612;1252;23022;-59
2023/09/12 12:59:04;;;;;;;8.40;7.40;;;28.10;53.80;;;;;;228473;1248;22597;-59
2023/09/12 13:04:08;;;;;;;8.70;7.80;;;28.20;53.80;;;;;;222068;1251;24427;-58
2023/09/12 13:09:11;;;;;;;8.10;7.40;;;28.20;54.00;;;;;;223738;1257;22609;-55
2023/09/12 13:14:14;;;;;;;8.70;7.70;;;28.00;54.40;;;;;;227116;1248;25501;-55
2023/09/12 13:19:17;;;;;;;8.80;8.10;;;28.00;54.70;;;;;;223071;1248;24204;-54
2023/09/12 13:24:20;;;;;;;7.70;7.20;;;28.10;54.60;;;;;;221104;1248;24367;-54
2023/09/12 13:29:23;;;;;;;8.20;7.60;;;28.00;54.70;;;;;;221547;1251;22520;-55
2023/09/12 13:34:26;;;;;;;9.00;8.30;;;28.00;55.00;;;;;;225880;1248;24422;-54
2023/09/12 13:39:29;;;;;;;8.50;7.70;;;27.90;55.20;;;;;;223228;1248;22516;-54
2023/09/12 13:44:32;;;;;;;8.90;8.00;;;27.90;54.90;;;;;;228620;1254;22522;-54
2023/09/12 13:49:35;;;;;;;9.50;8.30;;;28.00;54.50;;;;;;228272;1251;23950;-54
2023/09/12 13:54:38;;;;;;;8.70;7.80;;;28.00;54.70;;;;;;223762;1251;22521;-54
2023/09/12 13:59:41;;;;;;;8.50;7.80;;;28.10;54.40;;;;;;229614;1248;22277;-55
2023/09/12 14:04:50;;;;;;;8.50;7.70;;;28.10;54.40;;;;;;226447;1251;24233;-54
2023/09/12 14:10:13;;;;;;;9.00;8.20;;;28.00;54.40;;;;;;225998;1263;24231;-49
2023/09/12 14:15:36;;;;;;;9.10;8.30;;;27.90;55.20;;;;;;229563;1251;22271;-53
2023/09/12 14:20:41;;;;;;;8.20;7.60;;;28.10;55.30;;;;;;226546;1253;22633;-54
2023/09/12 14:25:47;;;;;;;9.00;8.20;;;28.10;55.40;;;;;;224525;1263;24323;-51
2023/09/12 14:30:52;;;;;;;8.60;7.80;;;28.10;55.20;;;;;;229587;1247;22256;-54
2023/09/12 14:35:56;;;;;;;8.50;7.60;;;28.00;55.20;;;;;;229524;1263;22624;-54
2023/09/12 14:41:00;;;;;;;9.30;8.50;;;28.00;55.10;;;;;;224004;1263;22686;-52
2023/09/12 14:46:05;;;;;;;9.00;8.30;;;28.00;55.30;;;;;;229526;1263;22319;-53
2023/09/12 14:51:09;;;;;;;10.20;8.40;;;28.00;55.40;;;;;;229510;1247;22256;-54
2023/09/12 14:56:13;;;;;;;9.40;8.50;;;28.10;55.60;;;;;;229507;1263;22269;-54
2023/09/12 15:01:17;;;;;;;9.30;8.30;;;28.10;56.30;;;;;;229557;1251;22963;-51
2023/09/12 15:06:20;;;;;;;8.90;8.10;;;28.20;55.80;;;;;;229545;1263;22321;-53
2023/09/12 15:11:24;;;;;;;11.00;8.70;;;28.30;55.90;;;;;;229592;1263;22212;-56
2023/09/12 15:16:31;;;;;;;11.80;9.30;;;28.30;56.00;;;;;;229603;1255;22386;-57
2023/09/12 15:21:34;;;;;;;10.90;9.00;;;28.20;56.00;;;;;;229546;1257;22443;-58
2023/09/12 15:26:37;;;;;;;18.80;12.30;;;28.30;55.90;;;;;;229536;1251;22293;-57
2023/09/12 15:31:40;;;;;;;15.40;9.10;;;28.40;55.70;;;;;;229539;1247;22272;-56
2023/09/12 15:36:45;;;;;;;10.60;9.60;;;28.40;55.60;;;;;;229611;1263;23012;-56
2023/09/12 15:41:48;;;;;;;11.60;9.10;;;28.30;57.20;;;;;;229547;1263;22267;-56
2023/09/12 15:46:57;;;;;;;11.90;9.30;;;28.20;57.10;;;;;;229553;1263;22378;-55
2023/09/12 15:52:18;;;;;;;11.20;9.50;;;28.10;56.70;;;;;;229584;1247;22315;-56
2023/09/12 15:57:20;;;;;;;11.20;9.70;;;28.10;56.60;;;;;;229572;1247;22814;-57
2023/09/12 16:02:25;;;;;;;12.20;10.00;;;28.20;56.70;;;;;;229574;1255;22267;-57
2023/09/12 16:07:29;;;;;;;12.40;10.10;;;28.20;56.50;;;;;;229571;1255;22410;-57
2023/09/12 16:12:32;;;;;;;13.60;9.50;;;28.10;57.10;;;;;;229656;1249;22244;-57
2023/09/12 16:17:41;;;;;;;14.30;9.10;;;28.10;57.40;;;;;;229603;1251;22412;-57
2023/09/12 16:22:44;;;;;;;17.50;8.70;;;28.00;58.20;;;;;;229580;1263;22452;-56
2023/09/12 16:27:47;;;;;;;9.80;8.80;;;28.00;58.20;;;;;;229548;1252;22649;-58
2023/09/12 16:32:50;;;;;;;14.30;8.60;;;27.90;58.50;;;;;;229594;1255;22318;-56
2023/09/12 16:37:54;;;;;;;17.90;9.10;;;27.80;58.90;;;;;;229468;1249;22362;-55
2023/09/12 16:42:57;;;;;;;10.90;9.60;;;27.90;58.90;;;;;;229480;1247;22273;-55
2023/09/12 16:48:02;;;;;;;9.40;8.50;;;27.80;59.10;;;;;;229636;1252;23049;-57
2023/09/12 16:53:05;;;;;;;12.90;9.50;;;27.70;58.90;;;;;;229471;1252;24207;-57
2023/09/12 16:58:10;;;;;;;14.50;9.70;;;27.80;59.00;;;;;;229478;1248;22335;-56
2023/09/12 17:03:13;;;;;;;14.20;11.20;;;27.70;58.90;;;;;;229523;1263;22282;-56
2023/09/12 17:08:17;;;;;;;11.30;9.20;;;27.80;59.20;;;;;;229459;1249;22295;-54
2023/09/12 17:13:21;;;;;;;19.70;10.20;;;27.90;59.60;;;;;;229448;1251;22528;-57
2023/09/12 17:18:24;;;;;;;10.70;9.70;;;27.70;60.20;;;;;;229493;1263;22303;-57
2023/09/12 17:23:38;;;;;;;10.80;9.70;;;27.60;59.80;;;;;;229008;1251;23435;-56
2023/09/12 17:28:41;;;;;;;12.80;9.50;;;27.60;60.00;;;;;;228970;1265;22337;-58
2023/09/12 17:33:44;;;;;;;12.00;9.50;;;27.50;60.30;;;;;;229033;1259;22401;-58
2023/09/12 17:38:48;;;;;;;10.50;9.50;;;27.50;60.20;;;;;;228851;1265;22414;-56
2023/09/12 17:43:52;;;;;;;11.20;9.50;;;27.60;59.60;;;;;;229001;1252;22308;-57
2023/09/12 17:48:57;;;;;;;11.50;10.00;;;27.50;60.90;;;;;;229086;1258;22329;-57
2023/09/12 17:53:59;;;;;;;11.20;10.10;;;27.70;59.60;;;;;;229016;1253;22329;-58
2023/09/12 17:59:04;;;;;;;14.60;10.30;;;27.50;59.20;;;;;;229215;1263;23397;-59
2023/09/12 18:04:07;;;;;;;12.10;10.70;;;27.50;59.50;;;;;;229614;1252;22599;-58
2023/09/12 18:09:11;;;;;;;11.40;10.30;;;27.40;59.60;;;;;;229588;1263;22303;-57
2023/09/12 18:14:15;;;;;;;14.40;10.40;;;27.40;59.60;;;;;;229529;1248;22258;-58
2023/09/12 18:19:18;;;;;;;11.90;10.60;;;27.40;60.00;;;;;;229521;1255;22330;-57
2023/09/12 18:24:22;;;;;;;12.90;11.60;;;27.30;60.20;;;;;;229501;1248;22995;-59
2023/09/12 18:29:25;;;;;;;14.90;10.50;;;27.50;60.30;;;;;;229526;1255;22234;-57
2023/09/12 18:34:29;;;;;;;10.90;9.80;;;27.20;60.40;;;;;;229317;1259;22264;-56
2023/09/12 18:39:34;;;;;;;15.60;12.30;;;27.10;61.60;;;;;;229537;1261;22350;-58
2023/09/12 18:44:38;;;;;;;17.70;12.70;;;27.00;61.00;;;;;;229301;1248;22312;-57
2023/09/12 18:49:41;;;;;;;17.70;12.10;;;26.90;61.50;;;;;;229548;1263;22399;-57
2023/09/12 18:54:45;;;;;;;18.50;13.60;;;26.90;61.50;;;;;;229563;1247;22287;-58
2023/09/12 18:59:49;;;;;;;13.70;12.30;;;26.80;61.40;;;;;;229633;1263;22265;-57
2023/09/12 19:04:55;;;;;;;13.70;12.30;;;26.70;61.50;;;;;;229613;1263;22317;-56
2023/09/12 19:09:59;;;;;;;16.10;13.50;;;26.70;61.70;;;;;;229353;1256;22546;-57
2023/09/12 19:15:06;;;;;;;17.00;12.80;;;26.70;61.90;;;;;;225261;1263;27496;-57
2023/09/12 19:20:12;;;;;;;17.90;13.00;;;26.70;61.90;;;;;;229525;1256;22315;-61
2023/09/12 19:25:15;;;;;;;29.40;13.50;;;26.60;62.30;;;;;;229612;1263;22353;-59
2023/09/12 19:30:20;;;;;;;22.10;13.20;;;26.60;62.70;;;;;;229587;1260;22450;-59
2023/09/12 19:35:26;;;;;;;19.90;13.50;;;26.60;62.90;;;;;;229388;1253;22270;-58
2023/09/12 19:40:31;;;;;;;18.90;12.20;;;26.40;62.90;;;;;;229557;1263;22266;-59
2023/09/12 19:45:38;;;;;;;15.80;13.80;;;26.40;62.40;;;;;;229629;1251;22354;-59
2023/09/12 19:50:44;;;;;;;22.90;15.20;;;26.40;63.10;;;;;;229403;1249;23970;-59
2023/09/12 19:55:58;;;;;;;15.30;11.80;;;26.30;62.40;;;;;;226357;1263;22520;-60
2023/09/12 20:01:03;;;;;;;16.20;12.80;;;26.30;63.00;;;;;;229271;1263;22259;-60
2023/09/12 20:06:07;;;;;;;15.60;12.30;;;26.20;63.20;;;;;;229283;1263;22241;-61
2023/09/12 20:11:13;;;;;;;13.90;12.50;;;26.20;62.50;;;;;;229392;1260;22315;-60
2023/09/12 20:16:17;;;;;;;14.50;12.90;;;26.20;62.50;;;;;;229297;1250;22268;-59
2023/09/12 20:21:23;;;;;;;15.20;13.70;;;26.10;63.40;;;;;;229411;1249;22257;-59
2023/09/12 20:26:36;;;;;;;18.30;13.50;;;26.00;62.80;;;;;;229311;1251;22611;-60
2023/09/12 20:31:50;;;;;;;16.10;13.50;;;25.90;63.10;;;;;;229164;1251;22322;-60
2023/09/12 20:37:02;;;;;;;21.00;13.40;;;25.90;62.60;;;;;;229319;1249;22272;-59
2023/09/12 20:42:08;;;;;;;16.70;13.50;;;25.80;62.80;;;;;;229386;1249;22248;-59
2023/09/12 20:47:15;;;;;;;13.80;12.50;;;25.80;62.70;;;;;;229352;1255;22344;-61
2023/09/12 20:52:20;;;;;;;15.20;13.20;;;25.80;62.50;;;;;;229341;1249;22379;-58
2023/09/12 20:57:23;;;;;;;19.70;15.20;;;25.70;62.70;;;;;;229369;1251;22352;-58
2023/09/12 21:02:26;;;;;;;18.50;16.60;;;25.50;63.70;;;;;;229495;1247;22419;-57
2023/09/12 21:07:29;;;;;;;19.70;16.80;;;25.40;64.40;;;;;;224012;1251;25268;-59
2023/09/12 21:12:32;;;;;;;18.70;16.70;;;25.40;64.20;;;;;;229459;1252;22242;-61
2023/09/12 21:17:37;;;;;;;19.30;17.20;;;25.40;64.50;;;;;;229443;1248;22392;-59
2023/09/12 21:22:39;;;;;;;19.80;17.30;;;25.40;64.10;;;;;;229421;1247;22282;-59
2023/09/12 21:27:42;;;;;;;19.60;17.40;;;25.40;64.20;;;;;;229431;1251;22381;-60
2023/09/12 21:32:45;;;;;;;19.90;17.90;;;25.50;63.50;;;;;;229440;1251;22287;-60
2023/09/12 21:37:47;;;;;;;25.20;17.90;;;25.40;63.60;;;;;;229447;1249;22655;-60
2023/09/12 21:42:50;;;;;;;21.70;18.10;;;25.40;63.00;;;;;;229478;1248;22350;-59
2023/09/12 21:47:53;;;;;;;21.70;17.50;;;25.30;63.20;;;;;;229443;1252;23104;-59
2023/09/12 21:52:55;;;;;;;20.20;18.00;;;25.30;63.50;;;;;;229458;1263;22279;-60
2023/09/12 21:57:58;;;;;;;21.20;17.70;;;25.20;62.80;;;;;;229493;1248;22225;-61
2023/09/12 22:03:04;;;;;;;19.70;17.50;;;25.20;63.00;;;;;;229492;1247;24111;-59
2023/09/12 22:08:07;;;;;;;18.80;16.30;;;25.10;62.90;;;;;;229528;1247;22253;-60
2023/09/12 22:13:09;;;;;;;20.10;18.00;;;25.10;63.20;;;;;;229536;1249;22265;-60
2023/09/12 22:18:12;;;;;;;19.60;16.30;;;25.50;62.40;;;;;;229523;1249;23056;-60
2023/09/12 22:23:15;;;;;;;17.60;15.40;;;25.70;61.50;;;;;;229434;1249;22384;-59
2023/09/12 22:28:17;;;;;;;21.60;16.30;;;25.70;61.50;;;;;;229432;1251;22278;-58
2023/09/12 22:33:20;;;;;;;19.40;15.90;;;25.80;61.40;;;;;;229566;1249;22384;-58
2023/09/12 22:38:23;;;;;;;17.20;15.60;;;25.90;61.40;;;;;;229613;1249;22265;-60
2023/09/12 22:43:26;;;;;;;18.10;16.10;;;25.90;61.20;;;;;;229572;1250;22272;-59
2023/09/12 22:48:29;;;;;;;17.20;14.80;;;25.90;61.40;;;;;;229633;1251;22269;-58
2023/09/12 22:53:31;;;;;;;15.70;14.10;;;25.90;61.30;;;;;;229561;1264;22252;-58
2023/09/12 22:58:34;;;;;;;16.60;14.70;;;25.90;61.20;;;;;;229551;1251;22272;-59
2023/09/12 23:03:37;;;;;;;16.40;14.60;;;25.90;61.10;;;;;;229457;1261;22670;-58
2023/09/12 23:08:39;;;;;;;18.90;13.90;;;25.90;61.10;;;;;;229450;1252;22244;-59
2023/09/12 23:13:42;;;;;;;16.90;15.10;;;26.00;61.30;;;;;;229475;1263;22270;-58
2023/09/12 23:18:46;;;;;;;14.90;13.50;;;25.90;61.20;;;;;;229589;1263;22285;-58
2023/09/12 23:23:48;;;;;;;18.80;14.40;;;25.90;61.10;;;;;;229519;1263;22283;-58
2023/09/12 23:28:51;;;;;;;15.70;14.10;;;25.90;60.90;;;;;;229528;1255;22225;-58
2023/09/12 23:33:54;;;;;;;18.70;15.40;;;25.90;60.90;;;;;;229546;1263;22276;-58
2023/09/12 23:38:56;;;;;;;16.20;14.40;;;25.90;60.80;;;;;;229603;1263;22277;-59
2023/09/12 23:43:59;;;;;;;16.00;14.40;;;25.90;60.60;;;;;;229582;1252;22304;-58
2023/09/12 23:49:02;;;;;;;15.50;13.90;;;25.90;60.70;;;;;;226139;1248;22770;-57
2023/09/12 23:54:07;;;;;;;16.20;14.30;;;25.90;60.40;;;;;;229510;1263;22299;-58
2023/09/12 23:59:10;;;;;;;16.30;13.90;;;25.90;60.60;;;;;;229527;1263;22320;-58
